sensor_id;sensor_type;location;lat;lon;timestamp;P1;durP1;ratioP1;P2;durP2;ratioP2
46036;SDS011;31769;49.304;8.428;2023-05-10T00:02:07;0.65;;;0.30;;
46036;SDS011;31769;49.304;8.428;2023-05-10T00:05:08;0.55;;;0.20;;
46036;SDS011;31769;49.304;8.428;2023-05-10T00:08:09;0.30;;;0.22;;
46036;SDS011;31769;49.304;8.428;2023-05-10T00:11:10;0.85;;;0.30;;
46036;SDS011;31769;49.304;8.428;2023-05-10T00:14:11;1.65;;;0.30;;
46036;SDS011;31769;49.304;8.428;2023-05-10T00:17:11;1.40;;;0.50;;
46036;SDS011;31769;49.304;8.428;2023-05-10T00:20:12;2.97;;;0.73;;
46036;SDS011;31769;49.304;8.428;2023-05-10T00:23:13;0.88;;;0.88;;
46036;SDS011;31769;49.304;8.428;2023-05-10T00:26:14;3.60;;;0.77;;
46036;SDS011;31769;49.304;8.428;2023-05-10T00:29:18;2.92;;;0.80;;
46036;SDS011;31769;49.304;8.428;2023-05-10T00:32:19;1.65;;;0.90;;
46036;SDS011;31769;49.304;8.428;2023-05-10T00:35:20;0.50;;;0.50;;
46036;SDS011;31769;49.304;8.428;2023-05-10T00:38:21;0.60;;;0.40;;
46036;SDS011;31769;49.304;8.428;2023-05-10T00:41:22;0.85;;;0.32;;
46036;SDS011;31769;49.304;8.428;2023-05-10T00:44:23;0.60;;;0.40;;
46036;SDS011;31769;49.304;8.428;2023-05-10T00:47:24;1.70;;;0.30;;
46036;SDS011;31769;49.304;8.428;2023-05-10T00:50:25;3.13;;;0.30;;
46036;SDS011;31769;49.304;8.428;2023-05-10T00:53:26;5.13;;;0.32;;
46036;SDS011;31769;49.304;8.428;2023-05-10T00:56:27;1.25;;;0.30;;
46036;SDS011;31769;49.304;8.428;2023-05-10T00:59:29;4.68;;;0.30;;
46036;SDS011;31769;49.304;8.428;2023-05-10T01:02:30;4.20;;;0.40;;
46036;SDS011;31769;49.304;8.428;2023-05-10T01:05:31;2.05;;;0.30;;
46036;SDS011;31769;49.304;8.428;2023-05-10T01:08:32;3.63;;;0.30;;
46036;SDS011;31769;49.304;8.428;2023-05-10T01:11:33;2.20;;;0.22;;
46036;SDS011;31769;49.304;8.428;2023-05-10T01:14:36;3.60;;;0.45;;
46036;SDS011;31769;49.304;8.428;2023-05-10T01:17:37;1.30;;;0.40;;
46036;SDS011;31769;49.304;8.428;2023-05-10T01:20:42;1.85;;;0.47;;
46036;SDS011;31769;49.304;8.428;2023-05-10T01:33:43;1.33;;;0.70;;
46036;SDS011;31769;49.304;8.428;2023-05-10T01:37:04;1.85;;;0.70;;
46036;SDS011;31769;49.304;8.428;2023-05-10T01:47:03;0.40;;;0.40;;
46036;SDS011;31769;49.304;8.428;2023-05-10T01:50:15;1.58;;;0.20;;
46036;SDS011;31769;49.304;8.428;2023-05-10T01:53:18;0.50;;;0.20;;
46036;SDS011;31769;49.304;8.428;2023-05-10T01:56:21;0.45;;;0.30;;
46036;SDS011;31769;49.304;8.428;2023-05-10T01:59:28;1.02;;;0.40;;
46036;SDS011;31769;49.304;8.428;2023-05-10T02:04:09;3.90;;;0.47;;
46036;SDS011;31769;49.304;8.428;2023-05-10T02:07:12;1.75;;;0.22;;
46036;SDS011;31769;49.304;8.428;2023-05-10T02:10:14;0.60;;;0.40;;
46036;SDS011;31769;49.304;8.428;2023-05-10T02:13:16;0.70;;;0.25;;
46036;SDS011;31769;49.304;8.428;2023-05-10T02:16:18;1.95;;;0.50;;
46036;SDS011;31769;49.304;8.428;2023-05-10T02:19:25;3.80;;;0.40;;
46036;SDS011;31769;49.304;8.428;2023-05-10T02:22:30;1.25;;;0.80;;
46036;SDS011;31769;49.304;8.428;2023-05-10T02:25:32;1.52;;;0.93;;
46036;SDS011;31769;49.304;8.428;2023-05-10T02:28:33;3.72;;;0.98;;
46036;SDS011;31769;49.304;8.428;2023-05-10T02:31:35;1.20;;;1.08;;
46036;SDS011;31769;49.304;8.428;2023-05-10T02:34:38;1.83;;;1.30;;
46036;SDS011;31769;49.304;8.428;2023-05-10T02:37:40;1.77;;;1.40;;
46036;SDS011;31769;49.304;8.428;2023-05-10T02:40:41;1.88;;;1.35;;
46036;SDS011;31769;49.304;8.428;2023-05-10T02:43:43;2.30;;;1.50;;
46036;SDS011;31769;49.304;8.428;2023-05-10T02:46:45;2.15;;;1.50;;
46036;SDS011;31769;49.304;8.428;2023-05-10T02:49:46;2.00;;;1.90;;
46036;SDS011;31769;49.304;8.428;2023-05-10T02:52:50;2.17;;;2.08;;
46036;SDS011;31769;49.304;8.428;2023-05-10T02:55:54;2.60;;;2.20;;
46036;SDS011;31769;49.304;8.428;2023-05-10T02:59:00;3.00;;;2.42;;
46036;SDS011;31769;49.304;8.428;2023-05-10T03:02:01;5.18;;;2.38;;
46036;SDS011;31769;49.304;8.428;2023-05-10T03:05:03;5.00;;;2.47;;
46036;SDS011;31769;49.304;8.428;2023-05-10T03:08:04;2.80;;;2.60;;
46036;SDS011;31769;49.304;8.428;2023-05-10T03:14:33;5.68;;;2.75;;
46036;SDS011;31769;49.304;8.428;2023-05-10T03:21:22;3.38;;;3.13;;
46036;SDS011;31769;49.304;8.428;2023-05-10T03:24:27;3.67;;;3.50;;
46036;SDS011;31769;49.304;8.428;2023-05-10T03:27:31;6.15;;;3.20;;
46036;SDS011;31769;49.304;8.428;2023-05-10T03:30:34;5.15;;;3.45;;
46036;SDS011;31769;49.304;8.428;2023-05-10T03:33:45;5.88;;;3.35;;
46036;SDS011;31769;49.304;8.428;2023-05-10T03:36:47;3.20;;;3.10;;
46036;SDS011;31769;49.304;8.428;2023-05-10T03:39:47;6.25;;;3.05;;
46036;SDS011;31769;49.304;8.428;2023-05-10T03:42:48;3.40;;;3.20;;
46036;SDS011;31769;49.304;8.428;2023-05-10T03:45:49;3.10;;;2.90;;
46036;SDS011;31769;49.304;8.428;2023-05-10T03:48:50;3.28;;;3.08;;
46036;SDS011;31769;49.304;8.428;2023-05-10T03:51:52;2.83;;;2.63;;
46036;SDS011;31769;49.304;8.428;2023-05-10T03:54:52;10.10;;;7.55;;
46036;SDS011;31769;49.304;8.428;2023-05-10T03:57:53;3.13;;;2.90;;
46036;SDS011;31769;49.304;8.428;2023-05-10T04:00:56;3.55;;;2.95;;
46036;SDS011;31769;49.304;8.428;2023-05-10T04:03:56;3.10;;;2.90;;
46036;SDS011;31769;49.304;8.428;2023-05-10T04:06:57;3.30;;;3.00;;
46036;SDS011;31769;49.304;8.428;2023-05-10T04:09:58;3.00;;;2.80;;
46036;SDS011;31769;49.304;8.428;2023-05-10T04:12:58;2.88;;;2.78;;
46036;SDS011;31769;49.304;8.428;2023-05-10T04:15:59;3.95;;;2.92;;
46036;SDS011;31769;49.304;8.428;2023-05-10T04:19:00;2.97;;;2.80;;
46036;SDS011;31769;49.304;8.428;2023-05-10T04:22:01;4.32;;;3.00;;
46036;SDS011;31769;49.304;8.428;2023-05-10T04:25:03;3.72;;;3.50;;
46036;SDS011;31769;49.304;8.428;2023-05-10T04:28:04;6.13;;;3.28;;
46036;SDS011;31769;49.304;8.428;2023-05-10T04:31:05;2.83;;;2.63;;
46036;SDS011;31769;49.304;8.428;2023-05-10T04:34:07;3.88;;;2.92;;
46036;SDS011;31769;49.304;8.428;2023-05-10T04:37:08;3.97;;;3.63;;
46036;SDS011;31769;49.304;8.428;2023-05-10T04:40:08;5.30;;;4.90;;
46036;SDS011;31769;49.304;8.428;2023-05-10T04:43:09;3.55;;;3.25;;
46036;SDS011;31769;49.304;8.428;2023-05-10T04:46:10;3.53;;;3.17;;
46036;SDS011;31769;49.304;8.428;2023-05-10T04:49:11;3.83;;;2.65;;
46036;SDS011;31769;49.304;8.428;2023-05-10T04:52:12;3.45;;;3.13;;
46036;SDS011;31769;49.304;8.428;2023-05-10T04:55:12;3.08;;;2.88;;
46036;SDS011;31769;49.304;8.428;2023-05-10T04:58:13;6.22;;;3.00;;
46036;SDS011;31769;49.304;8.428;2023-05-10T05:01:14;6.45;;;3.05;;
46036;SDS011;31769;49.304;8.428;2023-05-10T05:04:15;3.42;;;3.22;;
46036;SDS011;31769;49.304;8.428;2023-05-10T05:07:15;4.60;;;3.20;;
46036;SDS011;31769;49.304;8.428;2023-05-10T05:10:16;3.30;;;3.10;;
46036;SDS011;31769;49.304;8.428;2023-05-10T05:13:17;4.22;;;3.40;;
46036;SDS011;31769;49.304;8.428;2023-05-10T05:16:18;3.65;;;3.40;;
46036;SDS011;31769;49.304;8.428;2023-05-10T05:19:18;4.80;;;3.40;;
46036;SDS011;31769;49.304;8.428;2023-05-10T05:22:19;4.20;;;3.83;;
46036;SDS011;31769;49.304;8.428;2023-05-10T05:25:26;4.10;;;3.80;;
46036;SDS011;31769;49.304;8.428;2023-05-10T05:28:27;4.85;;;3.58;;
46036;SDS011;31769;49.304;8.428;2023-05-10T05:31:32;4.95;;;3.95;;
46036;SDS011;31769;49.304;8.428;2023-05-10T05:34:33;4.50;;;4.10;;
46036;SDS011;31769;49.304;8.428;2023-05-10T05:37:34;9.85;;;4.50;;
46036;SDS011;31769;49.304;8.428;2023-05-10T05:40:35;5.45;;;4.20;;
46036;SDS011;31769;49.304;8.428;2023-05-10T05:43:36;5.40;;;4.30;;
46036;SDS011;31769;49.304;8.428;2023-05-10T05:46:36;6.22;;;4.10;;
46036;SDS011;31769;49.304;8.428;2023-05-10T05:49:37;4.75;;;4.03;;
46036;SDS011;31769;49.304;8.428;2023-05-10T05:52:38;5.53;;;4.10;;
46036;SDS011;31769;49.304;8.428;2023-05-10T05:55:39;4.40;;;3.88;;
46036;SDS011;31769;49.304;8.428;2023-05-10T05:58:39;4.95;;;4.15;;
46036;SDS011;31769;49.304;8.428;2023-05-10T06:01:40;4.82;;;3.80;;
46036;SDS011;31769;49.304;8.428;2023-05-10T06:04:40;4.05;;;3.75;;
46036;SDS011;31769;49.304;8.428;2023-05-10T06:07:41;4.55;;;3.70;;
46036;SDS011;31769;49.304;8.428;2023-05-10T06:10:42;3.78;;;3.47;;
46036;SDS011;31769;49.304;8.428;2023-05-10T06:13:43;4.47;;;3.17;;
46036;SDS011;31769;49.304;8.428;2023-05-10T06:16:43;2.70;;;2.60;;
46036;SDS011;31769;49.304;8.428;2023-05-10T06:19:44;2.88;;;2.67;;
46036;SDS011;31769;49.304;8.428;2023-05-10T06:22:45;2.70;;;2.50;;
46036;SDS011;31769;49.304;8.428;2023-05-10T06:25:45;2.35;;;2.15;;
46036;SDS011;31769;49.304;8.428;2023-05-10T06:28:46;2.30;;;2.20;;
46036;SDS011;31769;49.304;8.428;2023-05-10T06:31:47;2.78;;;2.30;;
46036;SDS011;31769;49.304;8.428;2023-05-10T06:34:48;2.25;;;1.90;;
46036;SDS011;31769;49.304;8.428;2023-05-10T06:37:48;4.25;;;2.50;;
46036;SDS011;31769;49.304;8.428;2023-05-10T06:40:49;2.30;;;2.13;;
46036;SDS011;31769;49.304;8.428;2023-05-10T06:43:50;5.15;;;2.20;;
46036;SDS011;31769;49.304;8.428;2023-05-10T06:46:51;2.33;;;2.05;;
46036;SDS011;31769;49.304;8.428;2023-05-10T06:49:53;3.97;;;2.30;;
46036;SDS011;31769;49.304;8.428;2023-05-10T06:52:54;1.77;;;1.67;;
46036;SDS011;31769;49.304;8.428;2023-05-10T06:55:55;1.75;;;1.60;;
46036;SDS011;31769;49.304;8.428;2023-05-10T06:58:56;1.55;;;1.42;;
46036;SDS011;31769;49.304;8.428;2023-05-10T07:01:57;2.08;;;1.65;;
46036;SDS011;31769;49.304;8.428;2023-05-10T07:04:57;2.63;;;1.40;;
46036;SDS011;31769;49.304;8.428;2023-05-10T07:07:58;3.45;;;1.27;;
46036;SDS011;31769;49.304;8.428;2023-05-10T07:11:02;2.17;;;1.35;;
46036;SDS011;31769;49.304;8.428;2023-05-10T07:14:04;1.92;;;1.10;;
46036;SDS011;31769;49.304;8.428;2023-05-10T07:17:05;1.15;;;1.05;;
46036;SDS011;31769;49.304;8.428;2023-05-10T07:20:05;1.63;;;1.17;;
46036;SDS011;31769;49.304;8.428;2023-05-10T07:27:35;0.88;;;0.88;;
46036;SDS011;31769;49.304;8.428;2023-05-10T07:30:35;1.95;;;0.73;;
46036;SDS011;31769;49.304;8.428;2023-05-10T07:33:36;0.70;;;0.70;;
46036;SDS011;31769;49.304;8.428;2023-05-10T07:36:37;7.13;;;0.90;;
46036;SDS011;31769;49.304;8.428;2023-05-10T07:39:37;4.00;;;1.13;;
46036;SDS011;31769;49.304;8.428;2023-05-10T07:42:38;0.90;;;0.90;;
46036;SDS011;31769;49.304;8.428;2023-05-10T07:45:39;1.77;;;1.13;;
46036;SDS011;31769;49.304;8.428;2023-05-10T07:48:39;3.03;;;0.80;;
46036;SDS011;31769;49.304;8.428;2023-05-10T07:51:40;0.77;;;0.75;;
46036;SDS011;31769;49.304;8.428;2023-05-10T07:54:42;1.02;;;0.90;;
46036;SDS011;31769;49.304;8.428;2023-05-10T07:57:42;1.30;;;1.20;;
46036;SDS011;31769;49.304;8.428;2023-05-10T08:00:43;2.40;;;0.90;;
46036;SDS011;31769;49.304;8.428;2023-05-10T08:03:44;2.25;;;0.82;;
46036;SDS011;31769;49.304;8.428;2023-05-10T08:06:45;1.85;;;0.90;;
46036;SDS011;31769;49.304;8.428;2023-05-10T08:09:45;0.80;;;0.70;;
46036;SDS011;31769;49.304;8.428;2023-05-10T08:12:46;5.25;;;0.88;;
46036;SDS011;31769;49.304;8.428;2023-05-10T08:15:46;1.45;;;0.80;;
46036;SDS011;31769;49.304;8.428;2023-05-10T08:18:47;1.92;;;0.60;;
46036;SDS011;31769;49.304;8.428;2023-05-10T08:21:50;0.75;;;0.43;;
46036;SDS011;31769;49.304;8.428;2023-05-10T08:24:51;2.10;;;0.50;;
46036;SDS011;31769;49.304;8.428;2023-05-10T08:27:52;0.65;;;0.50;;
46036;SDS011;31769;49.304;8.428;2023-05-10T08:30:53;1.42;;;0.50;;
46036;SDS011;31769;49.304;8.428;2023-05-10T08:33:53;1.55;;;0.40;;
46036;SDS011;31769;49.304;8.428;2023-05-10T08:36:54;3.60;;;0.40;;
46036;SDS011;31769;49.304;8.428;2023-05-10T08:39:55;3.13;;;0.60;;
46036;SDS011;31769;49.304;8.428;2023-05-10T08:42:58;2.50;;;0.50;;
46036;SDS011;31769;49.304;8.428;2023-05-10T08:46:06;0.60;;;0.32;;
46036;SDS011;31769;49.304;8.428;2023-05-10T08:49:09;2.05;;;0.28;;
46036;SDS011;31769;49.304;8.428;2023-05-10T08:52:13;3.75;;;0.70;;
46036;SDS011;31769;49.304;8.428;2023-05-10T08:55:16;1.23;;;0.47;;
46036;SDS011;31769;49.304;8.428;2023-05-10T08:58:17;1.25;;;0.20;;
46036;SDS011;31769;49.304;8.428;2023-05-10T09:01:19;3.05;;;0.50;;
46036;SDS011;31769;49.304;8.428;2023-05-10T09:04:21;1.75;;;0.50;;
46036;SDS011;31769;49.304;8.428;2023-05-10T09:07:22;1.75;;;0.40;;
46036;SDS011;31769;49.304;8.428;2023-05-10T09:10:23;2.67;;;0.50;;
46036;SDS011;31769;49.304;8.428;2023-05-10T09:13:26;3.05;;;0.40;;
46036;SDS011;31769;49.304;8.428;2023-05-10T09:16:28;0.85;;;0.43;;
46036;SDS011;31769;49.304;8.428;2023-05-10T09:19:29;1.48;;;0.30;;
46036;SDS011;31769;49.304;8.428;2023-05-10T09:22:30;4.22;;;0.38;;
46036;SDS011;31769;49.304;8.428;2023-05-10T09:25:31;0.68;;;0.20;;
46036;SDS011;31769;49.304;8.428;2023-05-10T09:28:50;1.90;;;0.40;;
46036;SDS011;31769;49.304;8.428;2023-05-10T09:31:55;1.55;;;0.50;;
46036;SDS011;31769;49.304;8.428;2023-05-10T09:34:56;1.33;;;0.32;;
46036;SDS011;31769;49.304;8.428;2023-05-10T09:37:59;1.60;;;0.40;;
46036;SDS011;31769;49.304;8.428;2023-05-10T09:41:02;0.30;;;0.20;;
46036;SDS011;31769;49.304;8.428;2023-05-10T09:44:03;2.53;;;0.30;;
46036;SDS011;31769;49.304;8.428;2023-05-10T09:47:04;3.20;;;0.17;;
46036;SDS011;31769;49.304;8.428;2023-05-10T09:50:05;1.42;;;0.20;;
46036;SDS011;31769;49.304;8.428;2023-05-10T09:53:06;1.75;;;0.20;;
46036;SDS011;31769;49.304;8.428;2023-05-10T09:56:07;1.02;;;0.20;;
46036;SDS011;31769;49.304;8.428;2023-05-10T09:59:09;1.08;;;0.10;;
46036;SDS011;31769;49.304;8.428;2023-05-10T10:02:11;1.30;;;0.10;;
46036;SDS011;31769;49.304;8.428;2023-05-10T10:05:12;3.42;;;0.10;;
46036;SDS011;31769;49.304;8.428;2023-05-10T10:08:14;1.80;;;0.10;;
46036;SDS011;31769;49.304;8.428;2023-05-10T10:11:15;0.55;;;0.10;;
46036;SDS011;31769;49.304;8.428;2023-05-10T10:14:18;0.30;;;0.00;;
46036;SDS011;31769;49.304;8.428;2023-05-10T10:17:19;0.43;;;0.20;;
46036;SDS011;31769;49.304;8.428;2023-05-10T10:20:21;1.02;;;0.03;;
46036;SDS011;31769;49.304;8.428;2023-05-10T10:23:24;1.92;;;0.10;;
46036;SDS011;31769;49.304;8.428;2023-05-10T10:26:25;1.40;;;0.10;;
46036;SDS011;31769;49.304;8.428;2023-05-10T10:35:42;2.47;;;0.10;;
46036;SDS011;31769;49.304;8.428;2023-05-10T10:41:50;1.50;;;0.10;;
46036;SDS011;31769;49.304;8.428;2023-05-10T10:45:11;1.55;;;0.08;;
46036;SDS011;31769;49.304;8.428;2023-05-10T10:48:22;2.65;;;0.20;;
46036;SDS011;31769;49.304;8.428;2023-05-10T10:51:23;0.43;;;0.10;;
46036;SDS011;31769;49.304;8.428;2023-05-10T10:54:30;3.22;;;0.20;;
46036;SDS011;31769;49.304;8.428;2023-05-10T10:57:34;1.65;;;0.20;;
46036;SDS011;31769;49.304;8.428;2023-05-10T11:00:42;2.38;;;0.30;;
46036;SDS011;31769;49.304;8.428;2023-05-10T11:04:16;2.60;;;0.25;;
46036;SDS011;31769;49.304;8.428;2023-05-10T11:07:19;1.50;;;0.20;;
46036;SDS011;31769;49.304;8.428;2023-05-10T11:10:20;3.78;;;0.38;;
46036;SDS011;31769;49.304;8.428;2023-05-10T11:16:41;1.35;;;0.10;;
46036;SDS011;31769;49.304;8.428;2023-05-10T11:20:00;1.27;;;0.30;;
46036;SDS011;31769;49.304;8.428;2023-05-10T11:23:14;8.25;;;1.00;;
46036;SDS011;31769;49.304;8.428;2023-05-10T11:26:16;1.75;;;0.30;;
46036;SDS011;31769;49.304;8.428;2023-05-10T11:29:17;2.97;;;0.32;;
46036;SDS011;31769;49.304;8.428;2023-05-10T11:32:18;4.32;;;0.85;;
46036;SDS011;31769;49.304;8.428;2023-05-10T11:35:19;5.57;;;0.60;;
46036;SDS011;31769;49.304;8.428;2023-05-10T11:38:20;2.03;;;0.28;;
46036;SDS011;31769;49.304;8.428;2023-05-10T11:41:22;2.95;;;0.50;;
46036;SDS011;31769;49.304;8.428;2023-05-10T11:44:28;1.35;;;0.20;;
46036;SDS011;31769;49.304;8.428;2023-05-10T11:47:30;3.95;;;0.63;;
46036;SDS011;31769;49.304;8.428;2023-05-10T11:50:31;2.92;;;0.47;;
46036;SDS011;31769;49.304;8.428;2023-05-10T11:53:32;2.30;;;0.47;;
46036;SDS011;31769;49.304;8.428;2023-05-10T11:56:33;3.38;;;0.43;;
46036;SDS011;31769;49.304;8.428;2023-05-10T11:59:34;2.75;;;0.32;;
46036;SDS011;31769;49.304;8.428;2023-05-10T12:02:34;3.60;;;0.20;;
46036;SDS011;31769;49.304;8.428;2023-05-10T12:05:35;1.90;;;0.20;;
46036;SDS011;31769;49.304;8.428;2023-05-10T12:08:36;2.53;;;0.20;;
46036;SDS011;31769;49.304;8.428;2023-05-10T12:11:45;2.78;;;0.17;;
46036;SDS011;31769;49.304;8.428;2023-05-10T12:14:48;2.80;;;0.50;;
46036;SDS011;31769;49.304;8.428;2023-05-10T12:17:50;1.65;;;0.20;;
46036;SDS011;31769;49.304;8.428;2023-05-10T12:20:51;3.40;;;0.20;;
46036;SDS011;31769;49.304;8.428;2023-05-10T12:23:54;1.52;;;0.30;;
46036;SDS011;31769;49.304;8.428;2023-05-10T12:26:59;1.95;;;0.17;;
46036;SDS011;31769;49.304;8.428;2023-05-10T12:29:59;0.90;;;0.13;;
46036;SDS011;31769;49.304;8.428;2023-05-10T12:33:10;0.70;;;0.10;;
46036;SDS011;31769;49.304;8.428;2023-05-10T12:36:12;2.72;;;0.10;;
46036;SDS011;31769;49.304;8.428;2023-05-10T12:39:14;2.35;;;0.10;;
46036;SDS011;31769;49.304;8.428;2023-05-10T12:42:15;0.95;;;0.20;;
46036;SDS011;31769;49.304;8.428;2023-05-10T12:45:17;1.70;;;0.10;;
46036;SDS011;31769;49.304;8.428;2023-05-10T12:48:18;1.30;;;0.20;;
46036;SDS011;31769;49.304;8.428;2023-05-10T12:51:19;1.48;;;0.20;;
46036;SDS011;31769;49.304;8.428;2023-05-10T12:54:22;0.93;;;0.25;;
46036;SDS011;31769;49.304;8.428;2023-05-10T12:57:22;1.73;;;0.17;;
46036;SDS011;31769;49.304;8.428;2023-05-10T13:00:23;2.42;;;0.15;;
46036;SDS011;31769;49.304;8.428;2023-05-10T13:03:24;0.40;;;0.10;;
46036;SDS011;31769;49.304;8.428;2023-05-10T13:06:25;2.85;;;0.10;;
46036;SDS011;31769;49.304;8.428;2023-05-10T13:09:26;0.35;;;0.08;;
46036;SDS011;31769;49.304;8.428;2023-05-10T13:12:31;5.97;;;0.10;;
46036;SDS011;31769;49.304;8.428;2023-05-10T13:15:32;1.10;;;0.10;;
46036;SDS011;31769;49.304;8.428;2023-05-10T13:18:32;3.80;;;0.05;;
46036;SDS011;31769;49.304;8.428;2023-05-10T13:21:33;2.97;;;0.10;;
46036;SDS011;31769;49.304;8.428;2023-05-10T13:24:34;0.40;;;0.00;;
46036;SDS011;31769;49.304;8.428;2023-05-10T13:27:35;1.75;;;0.10;;
46036;SDS011;31769;49.304;8.428;2023-05-10T13:30:35;4.38;;;0.10;;
46036;SDS011;31769;49.304;8.428;2023-05-10T13:33:36;2.00;;;0.10;;
46036;SDS011;31769;49.304;8.428;2023-05-10T13:36:37;1.10;;;0.10;;
46036;SDS011;31769;49.304;8.428;2023-05-10T13:39:38;0.68;;;0.00;;
46036;SDS011;31769;49.304;8.428;2023-05-10T13:42:38;0.75;;;0.10;;
46036;SDS011;31769;49.304;8.428;2023-05-10T13:45:39;0.57;;;0.10;;
46036;SDS011;31769;49.304;8.428;2023-05-10T13:48:40;0.40;;;0.03;;
46036;SDS011;31769;49.304;8.428;2023-05-10T13:51:43;1.85;;;0.10;;
46036;SDS011;31769;49.304;8.428;2023-05-10T13:54:44;1.70;;;0.15;;
46036;SDS011;31769;49.304;8.428;2023-05-10T13:57:45;2.35;;;0.10;;
46036;SDS011;31769;49.304;8.428;2023-05-10T14:00:45;0.77;;;0.10;;
46036;SDS011;31769;49.304;8.428;2023-05-10T14:03:46;0.38;;;0.10;;
46036;SDS011;31769;49.304;8.428;2023-05-10T14:06:47;0.70;;;0.05;;
46036;SDS011;31769;49.304;8.428;2023-05-10T14:09:47;2.53;;;0.00;;
46036;SDS011;31769;49.304;8.428;2023-05-10T14:12:49;0.90;;;0.00;;
46036;SDS011;31769;49.304;8.428;2023-05-10T14:15:50;0.60;;;0.03;;
46036;SDS011;31769;49.304;8.428;2023-05-10T14:18:51;0.57;;;0.00;;
46036;SDS011;31769;49.304;8.428;2023-05-10T14:21:52;0.52;;;0.05;;
46036;SDS011;31769;49.304;8.428;2023-05-10T14:24:52;1.05;;;0.10;;
46036;SDS011;31769;49.304;8.428;2023-05-10T14:27:54;0.50;;;0.00;;
46036;SDS011;31769;49.304;8.428;2023-05-10T14:30:54;2.88;;;0.00;;
46036;SDS011;31769;49.304;8.428;2023-05-10T14:33:55;1.52;;;0.20;;
46036;SDS011;31769;49.304;8.428;2023-05-10T14:36:57;1.58;;;0.10;;
46036;SDS011;31769;49.304;8.428;2023-05-10T14:39:58;0.95;;;0.00;;
46036;SDS011;31769;49.304;8.428;2023-05-10T14:42:59;0.20;;;0.00;;
46036;SDS011;31769;49.304;8.428;2023-05-10T14:45:59;0.80;;;0.03;;
46036;SDS011;31769;49.304;8.428;2023-05-10T14:49:00;0.50;;;0.00;;
46036;SDS011;31769;49.304;8.428;2023-05-10T14:52:01;1.65;;;0.08;;
46036;SDS011;31769;49.304;8.428;2023-05-10T14:55:01;0.55;;;0.15;;
46036;SDS011;31769;49.304;8.428;2023-05-10T14:58:02;1.00;;;0.10;;
46036;SDS011;31769;49.304;8.428;2023-05-10T15:01:03;2.78;;;0.00;;
46036;SDS011;31769;49.304;8.428;2023-05-10T15:04:04;0.30;;;0.00;;
46036;SDS011;31769;49.304;8.428;2023-05-10T15:07:05;0.70;;;0.00;;
46036;SDS011;31769;49.304;8.428;2023-05-10T15:10:05;0.70;;;0.00;;
46036;SDS011;31769;49.304;8.428;2023-05-10T15:13:07;0.88;;;0.00;;
46036;SDS011;31769;49.304;8.428;2023-05-10T15:16:07;0.35;;;0.00;;
46036;SDS011;31769;49.304;8.428;2023-05-10T15:19:08;0.65;;;0.00;;
46036;SDS011;31769;49.304;8.428;2023-05-10T15:22:08;0.30;;;0.00;;
46036;SDS011;31769;49.304;8.428;2023-05-10T15:25:09;0.47;;;0.00;;
46036;SDS011;31769;49.304;8.428;2023-05-10T15:28:10;1.45;;;0.10;;
46036;SDS011;31769;49.304;8.428;2023-05-10T15:31:11;1.98;;;0.00;;
46036;SDS011;31769;49.304;8.428;2023-05-10T15:34:11;1.25;;;0.10;;
46036;SDS011;31769;49.304;8.428;2023-05-10T15:37:12;1.10;;;0.00;;
46036;SDS011;31769;49.304;8.428;2023-05-10T15:40:13;2.53;;;0.22;;
46036;SDS011;31769;49.304;8.428;2023-05-10T15:43:14;1.35;;;0.10;;
46036;SDS011;31769;49.304;8.428;2023-05-10T15:46:15;1.30;;;0.10;;
46036;SDS011;31769;49.304;8.428;2023-05-10T15:49:15;2.42;;;0.17;;
46036;SDS011;31769;49.304;8.428;2023-05-10T15:52:16;0.75;;;0.10;;
46036;SDS011;31769;49.304;8.428;2023-05-10T15:55:17;1.98;;;0.00;;
46036;SDS011;31769;49.304;8.428;2023-05-10T15:58:18;1.48;;;0.00;;
46036;SDS011;31769;49.304;8.428;2023-05-10T16:01:19;0.70;;;0.00;;
46036;SDS011;31769;49.304;8.428;2023-05-10T16:04:20;3.63;;;0.00;;
46036;SDS011;31769;49.304;8.428;2023-05-10T16:07:21;0.43;;;0.00;;
46036;SDS011;31769;49.304;8.428;2023-05-10T16:10:22;2.53;;;0.00;;
46036;SDS011;31769;49.304;8.428;2023-05-10T16:13:23;1.08;;;0.10;;
46036;SDS011;31769;49.304;8.428;2023-05-10T16:16:23;2.60;;;0.08;;
46036;SDS011;31769;49.304;8.428;2023-05-10T16:19:24;3.20;;;0.00;;
46036;SDS011;31769;49.304;8.428;2023-05-10T16:22:26;0.65;;;0.03;;
46036;SDS011;31769;49.304;8.428;2023-05-10T16:25:27;0.52;;;0.00;;
46036;SDS011;31769;49.304;8.428;2023-05-10T16:28:28;2.67;;;0.10;;
46036;SDS011;31769;49.304;8.428;2023-05-10T16:31:29;1.30;;;0.10;;
46036;SDS011;31769;49.304;8.428;2023-05-10T16:34:29;0.95;;;0.08;;
46036;SDS011;31769;49.304;8.428;2023-05-10T16:37:30;1.35;;;0.00;;
46036;SDS011;31769;49.304;8.428;2023-05-10T16:40:31;1.35;;;0.00;;
46036;SDS011;31769;49.304;8.428;2023-05-10T16:43:32;0.70;;;0.10;;
46036;SDS011;31769;49.304;8.428;2023-05-10T16:46:32;3.15;;;0.10;;
46036;SDS011;31769;49.304;8.428;2023-05-10T16:49:34;0.25;;;0.00;;
46036;SDS011;31769;49.304;8.428;2023-05-10T16:52:35;0.20;;;0.00;;
46036;SDS011;31769;49.304;8.428;2023-05-10T16:55:36;0.40;;;0.00;;
46036;SDS011;31769;49.304;8.428;2023-05-10T16:58:37;2.20;;;0.03;;
46036;SDS011;31769;49.304;8.428;2023-05-10T17:01:37;6.30;;;0.15;;
46036;SDS011;31769;49.304;8.428;2023-05-10T17:04:39;1.90;;;0.10;;
46036;SDS011;31769;49.304;8.428;2023-05-10T17:07:40;2.30;;;0.05;;
46036;SDS011;31769;49.304;8.428;2023-05-10T17:10:40;0.63;;;0.00;;
46036;SDS011;31769;49.304;8.428;2023-05-10T17:13:41;2.03;;;0.10;;
46036;SDS011;31769;49.304;8.428;2023-05-10T17:16:41;2.97;;;0.10;;
46036;SDS011;31769;49.304;8.428;2023-05-10T17:19:45;3.13;;;0.13;;
46036;SDS011;31769;49.304;8.428;2023-05-10T17:22:46;1.13;;;0.10;;
46036;SDS011;31769;49.304;8.428;2023-05-10T17:25:47;2.72;;;0.30;;
46036;SDS011;31769;49.304;8.428;2023-05-10T17:28:48;1.10;;;0.20;;
46036;SDS011;31769;49.304;8.428;2023-05-10T17:31:48;1.52;;;0.10;;
46036;SDS011;31769;49.304;8.428;2023-05-10T17:34:49;0.50;;;0.10;;
46036;SDS011;31769;49.304;8.428;2023-05-10T17:37:50;0.70;;;0.10;;
46036;SDS011;31769;49.304;8.428;2023-05-10T17:40:51;3.40;;;0.13;;
46036;SDS011;31769;49.304;8.428;2023-05-10T17:43:53;2.28;;;0.22;;
46036;SDS011;31769;49.304;8.428;2023-05-10T17:46:53;1.60;;;0.17;;
46036;SDS011;31769;49.304;8.428;2023-05-10T17:49:54;0.47;;;0.10;;
46036;SDS011;31769;49.304;8.428;2023-05-10T17:52:54;0.22;;;0.03;;
46036;SDS011;31769;49.304;8.428;2023-05-10T17:55:55;0.77;;;0.10;;
46036;SDS011;31769;49.304;8.428;2023-05-10T17:58:57;3.42;;;0.30;;
46036;SDS011;31769;49.304;8.428;2023-05-10T18:01:59;1.35;;;0.10;;
46036;SDS011;31769;49.304;8.428;2023-05-10T18:05:00;4.05;;;0.80;;
46036;SDS011;31769;49.304;8.428;2023-05-10T18:08:01;0.77;;;0.10;;
46036;SDS011;31769;49.304;8.428;2023-05-10T18:11:06;1.77;;;0.10;;
46036;SDS011;31769;49.304;8.428;2023-05-10T18:14:06;1.00;;;0.10;;
46036;SDS011;31769;49.304;8.428;2023-05-10T18:17:07;1.85;;;0.10;;
46036;SDS011;31769;49.304;8.428;2023-05-10T18:20:08;2.45;;;0.00;;
46036;SDS011;31769;49.304;8.428;2023-05-10T18:23:09;2.33;;;0.30;;
46036;SDS011;31769;49.304;8.428;2023-05-10T18:26:10;0.50;;;0.22;;
46036;SDS011;31769;49.304;8.428;2023-05-10T18:29:12;1.13;;;0.30;;
46036;SDS011;31769;49.304;8.428;2023-05-10T18:32:13;1.30;;;0.00;;
46036;SDS011;31769;49.304;8.428;2023-05-10T18:35:13;1.90;;;0.10;;
46036;SDS011;31769;49.304;8.428;2023-05-10T18:38:14;0.90;;;0.10;;
46036;SDS011;31769;49.304;8.428;2023-05-10T18:41:15;1.33;;;0.10;;
46036;SDS011;31769;49.304;8.428;2023-05-10T18:44:16;0.47;;;0.00;;
46036;SDS011;31769;49.304;8.428;2023-05-10T18:47:18;3.55;;;3.35;;
46036;SDS011;31769;49.304;8.428;2023-05-10T18:50:18;5.45;;;1.58;;
46036;SDS011;31769;49.304;8.428;2023-05-10T18:53:19;1.40;;;1.10;;
46036;SDS011;31769;49.304;8.428;2023-05-10T18:56:20;0.98;;;0.88;;
46036;SDS011;31769;49.304;8.428;2023-05-10T18:59:21;0.95;;;0.32;;